Time;durP1;ratioP1;P1;durP2;ratioP2;P2;SDS_P1;SDS_P2;PMS_P1;PMS_P2;Temp;Humidity;BMP_temperature;BMP_pressure;BME280_temperature;BME280_humidity;BME280_pressure;Samples;Min_cycle;Max_cycle;Signal;HPM_P1;HPM_P2
2021/12/04 00:00:39;;;;;;;6.80;4.95;;;4.60;74.00;;;;;;5019005;28;20228;-70
2021/12/04 00:03:07;;;;;;;12.43;6.30;;;4.50;74.10;;;;;;5014816;28;20304;-69
2021/12/04 00:05:35;;;;;;;7.03;5.13;;;4.50;74.10;;;;;;5014679;28;20232;-72
2021/12/04 00:08:05;;;;;;;9.07;4.70;;;4.40;74.20;;;;;;5015987;28;20212;-72
2021/12/04 00:10:33;;;;;;;8.65;5.15;;;4.40;74.50;;;;;;5018863;28;20209;-70
2021/12/04 00:13:01;;;;;;;7.75;5.03;;;4.40;74.50;;;;;;5021556;28;20599;-70
2021/12/04 00:15:29;;;;;;;7.43;5.10;;;4.40;74.60;;;;;;5016502;28;20264;-70
2021/12/04 00:17:59;;;;;;;8.52;5.75;;;4.40;74.50;;;;;;5019507;28;20251;-70
2021/12/04 00:20:30;;;;;;;8.52;4.93;;;4.40;74.60;;;;;;5017470;28;20239;-69
2021/12/04 00:23:00;;;;;;;7.72;4.50;;;4.40;74.70;;;;;;5018153;28;20701;-70
2021/12/04 00:25:29;;;;;;;9.32;6.15;;;4.40;74.80;;;;;;5018246;28;20585;-68
2021/12/04 00:27:57;;;;;;;13.60;6.35;;;4.40;74.90;;;;;;5022601;28;20205;-70
2021/12/04 00:30:26;;;;;;;20.35;10.95;;;4.40;75.00;;;;;;5018330;28;20279;-69
2021/12/04 00:33:00;;;;;;;16.27;8.93;;;4.40;75.00;;;;;;5021206;28;20217;-74
2021/12/04 00:35:40;;;;;;;12.00;7.35;;;4.40;75.00;;;;;;5025813;28;20227;-69
2021/12/04 00:49:20;;;;;;;9.02;5.90;;;4.30;75.40;;;;;;5024875;28;20266;-71
2021/12/04 00:51:53;;;;;;;9.48;5.80;;;4.30;75.40;;;;;;5024305;28;20207;-71
2021/12/04 00:54:22;;;;;;;13.50;6.63;;;4.30;75.40;;;;;;5024462;28;20207;-70
2021/12/04 00:56:52;;;;;;;10.50;5.90;;;4.30;75.70;;;;;;5020522;28;20219;-71
2021/12/04 00:59:20;;;;;;;8.90;5.78;;;4.30;75.70;;;;;;5021032;28;20224;-70
2021/12/04 01:01:49;;;;;;;6.97;4.88;;;4.30;75.80;;;;;;5020403;28;20240;-72
2021/12/04 01:04:20;;;;;;;8.60;5.47;;;4.30;75.70;;;;;;5021479;28;20678;-71
2021/12/04 01:06:49;;;;;;;8.05;5.18;;;4.30;75.90;;;;;;5020310;28;20232;-70
2021/12/04 01:09:19;;;;;;;12.57;5.60;;;4.30;75.90;;;;;;5018077;28;20212;-70
2021/12/04 01:11:47;;;;;;;9.68;6.05;;;4.30;76.00;;;;;;5018376;28;20209;-70
2021/12/04 01:14:19;;;;;;;10.55;5.40;;;4.30;75.90;;;;;;5021229;28;20210;-70
2021/12/04 01:16:47;;;;;;;8.50;5.82;;;4.30;76.00;;;;;;5020939;28;20722;-70
2021/12/04 01:19:18;;;;;;;9.48;5.95;;;4.20;76.00;;;;;;5021233;28;20217;-70
2021/12/04 01:21:46;;;;;;;10.65;6.35;;;4.30;76.10;;;;;;5020951;28;20202;-70
2021/12/04 01:24:14;;;;;;;8.82;5.32;;;4.20;76.10;;;;;;5020061;28;20208;-70
2021/12/04 01:26:42;;;;;;;8.75;5.47;;;4.20;76.20;;;;;;5018460;28;20213;-70
2021/12/04 01:29:10;;;;;;;8.63;5.55;;;4.20;76.20;;;;;;5022864;28;20209;-75
2021/12/04 01:31:40;;;;;;;8.98;5.43;;;4.20;76.30;;;;;;5028210;28;20712;-69
2021/12/04 01:34:08;;;;;;;9.00;5.43;;;4.20;76.50;;;;;;5029837;28;20204;-68
2021/12/04 01:36:36;;;;;;;7.20;5.05;;;4.20;76.60;;;;;;5027129;28;20225;-69
2021/12/04 01:39:06;;;;;;;9.02;5.60;;;4.30;76.70;;;;;;5025637;28;20197;-72
2021/12/04 01:41:35;;;;;;;9.20;5.85;;;4.30;76.70;;;;;;5026528;28;20197;-70
2021/12/04 01:44:05;;;;;;;7.13;4.45;;;4.40;76.60;;;;;;5027386;28;20768;-75
2021/12/04 01:46:34;;;;;;;8.65;5.90;;;4.40;76.60;;;;;;5024410;28;20236;-76
2021/12/04 01:49:04;;;;;;;9.05;5.30;;;4.40;76.70;;;;;;5026276;28;20271;-68
2021/12/04 01:51:32;;;;;;;8.45;5.00;;;4.50;76.70;;;;;;5027590;28;20255;-72
2021/12/04 01:54:00;;;;;;;8.85;5.22;;;4.50;76.70;;;;;;5026850;28;20192;-69
2021/12/04 01:56:31;;;;;;;8.25;5.32;;;4.50;76.70;;;;;;5024219;28;20220;-69
2021/12/04 01:58:59;;;;;;;9.30;6.40;;;4.50;76.80;;;;;;5025075;28;20624;-70
2021/12/04 02:01:27;;;;;;;7.35;5.18;;;4.50;76.80;;;;;;5027052;28;20225;-71
2021/12/04 02:03:55;;;;;;;7.70;4.95;;;4.50;76.70;;;;;;5029108;28;20623;-68
2021/12/04 02:06:25;;;;;;;16.63;9.63;;;4.50;76.80;;;;;;5025110;28;20244;-72
2021/12/04 02:08:53;;;;;;;60.20;26.85;;;4.50;76.80;;;;;;5025369;28;20197;-70
2021/12/04 02:11:21;;;;;;;17.27;9.27;;;4.60;76.90;;;;;;5024564;28;20663;-76
2021/12/04 02:13:49;;;;;;;20.10;10.20;;;4.50;76.70;;;;;;5020259;28;20197;-69
2021/12/04 02:16:19;;;;;;;13.38;8.27;;;4.50;76.40;;;;;;5028768;28;20251;-70
2021/12/04 02:18:48;;;;;;;21.70;10.13;;;4.40;76.60;;;;;;5026459;28;20728;-70
2021/12/04 02:21:17;;;;;;;21.65;11.70;;;4.30;76.80;;;;;;5028030;28;20689;-69
2021/12/04 02:23:45;;;;;;;25.38;13.85;;;4.30;76.80;;;;;;5022926;28;21056;-72
2021/12/04 02:26:14;;;;;;;28.95;14.40;;;4.20;76.80;;;;;;5040598;28;20233;-73
2021/12/04 02:28:43;;;;;;;15.05;9.80;;;4.20;77.10;;;;;;5026734;28;20209;-72
2021/12/04 02:31:16;;;;;;;12.75;8.45;;;4.20;77.20;;;;;;5025549;28;20332;-70
2021/12/04 02:33:44;;;;;;;17.95;7.35;;;4.20;77.30;;;;;;5028370;28;20217;-70
2021/12/04 02:36:12;;;;;;;9.35;7.00;;;4.20;77.20;;;;;;5024786;28;20229;-74
2021/12/04 02:38:43;;;;;;;10.88;7.45;;;4.30;77.40;;;;;;5024576;28;20199;-69
2021/12/04 02:41:11;;;;;;;13.27;7.70;;;4.30;77.50;;;;;;5027497;28;20251;-74
2021/12/04 02:43:42;;;;;;;11.25;7.85;;;4.30;77.40;;;;;;5025876;28;20818;-75
2021/12/04 02:46:10;;;;;;;19.25;11.50;;;4.30;77.40;;;;;;5023949;28;20236;-70
2021/12/04 02:48:38;;;;;;;17.40;9.65;;;4.20;77.50;;;;;;5021359;28;20209;-69
2021/12/04 02:51:07;;;;;;;11.30;7.70;;;4.20;77.60;;;;;;5020384;28;20205;-70
2021/12/04 02:53:35;;;;;;;11.15;8.05;;;4.20;77.80;;;;;;5018541;28;20263;-70
2021/12/04 02:56:06;;;;;;;14.40;9.10;;;4.20;77.70;;;;;;5017766;28;20225;-69
2021/12/04 02:58:34;;;;;;;18.38;7.80;;;4.20;77.70;;;;;;5019103;28;21005;-70
2021/12/04 03:01:04;;;;;;;14.55;8.52;;;4.10;77.80;;;;;;5016523;28;20275;-70
2021/12/04 03:03:32;;;;;;;15.23;7.25;;;4.10;77.90;;;;;;5018262;28;20216;-70
2021/12/04 03:06:00;;;;;;;14.77;7.38;;;4.10;78.00;;;;;;5022404;28;20890;-70
2021/12/04 03:08:28;;;;;;;13.80;8.00;;;4.10;78.10;;;;;;5020933;28;20189;-70
2021/12/04 03:10:57;;;;;;;13.70;6.95;;;4.10;78.10;;;;;;5017840;28;20190;-70
2021/12/04 03:13:26;;;;;;;29.45;14.75;;;4.10;78.20;;;;;;5018496;28;20198;-69
2021/12/04 03:15:58;;;;;;;15.02;9.07;;;4.10;78.30;;;;;;5017362;28;20244;-70
2021/12/04 03:18:27;;;;;;;10.13;7.03;;;4.10;78.30;;;;;;5018623;28;20872;-70
2021/12/04 03:20:58;;;;;;;11.77;7.47;;;4.10;78.30;;;;;;5019275;28;20303;-70
2021/12/04 03:23:29;;;;;;;11.02;7.20;;;4.10;78.40;;;;;;5012487;28;20205;-70
2021/12/04 03:25:58;;;;;;;11.85;6.90;;;4.10;78.40;;;;;;5017289;28;20718;-70
2021/12/04 03:28:28;;;;;;;15.13;8.68;;;4.20;78.50;;;;;;5019487;28;20205;-70
2021/12/04 03:31:01;;;;;;;14.80;7.55;;;4.20;78.50;;;;;;5019611;28;20635;-70
2021/12/04 03:41:45;;;;;;;11.73;7.15;;;4.10;78.70;;;;;;5017276;28;20224;-71
2021/12/04 03:44:14;;;;;;;11.35;6.68;;;4.00;78.80;;;;;;5031443;28;20213;-70
2021/12/04 03:46:44;;;;;;;10.80;7.25;;;4.00;78.80;;;;;;5015028;28;20271;-71
2021/12/04 03:49:13;;;;;;;10.57;6.30;;;4.00;78.90;;;;;;5015970;28;20679;-71
2021/12/04 03:51:41;;;;;;;9.57;6.78;;;4.00;78.90;;;;;;5014955;28;20244;-71
2021/12/04 03:54:09;;;;;;;13.60;6.20;;;4.00;79.10;;;;;;5015924;28;20201;-69
2021/12/04 03:56:37;;;;;;;7.65;5.30;;;4.00;79.10;;;;;;5019842;28;20220;-69
2021/12/04 03:59:06;;;;;;;8.65;5.60;;;4.10;79.10;;;;;;5027345;28;20259;-74
2021/12/04 04:01:36;;;;;;;8.00;5.88;;;4.10;79.10;;;;;;5024920;28;20927;-72
2021/12/04 04:04:04;;;;;;;7.60;5.13;;;4.10;79.20;;;;;;5021209;28;20222;-72
2021/12/04 04:06:33;;;;;;;8.10;6.05;;;4.10;79.10;;;;;;5022238;28;20217;-71
2021/12/04 04:09:03;;;;;;;6.93;4.97;;;4.10;79.20;;;;;;5020305;28;20209;-70
2021/12/04 04:11:35;;;;;;;7.05;5.05;;;4.20;79.30;;;;;;5022493;28;20201;-70
2021/12/04 04:14:04;;;;;;;7.20;5.40;;;4.20;79.30;;;;;;5021022;28;20271;-71
2021/12/04 04:16:35;;;;;;;7.35;5.50;;;4.20;79.30;;;;;;5042238;28;20232;-72
2021/12/04 04:19:05;;;;;;;9.02;5.65;;;4.20;79.20;;;;;;5023595;28;20580;-69
2021/12/04 04:21:38;;;;;;;7.68;5.20;;;4.20;79.20;;;;;;5026389;28;20228;-71
2021/12/04 04:24:07;;;;;;;8.80;6.20;;;4.20;79.30;;;;;;5028418;28;20213;-72
2021/12/04 04:26:35;;;;;;;7.88;5.40;;;4.20;79.30;;;;;;5024878;28;20231;-71
2021/12/04 04:29:03;;;;;;;8.93;6.13;;;4.20;79.40;;;;;;5021529;28;20565;-71
2021/12/04 04:31:32;;;;;;;8.23;5.50;;;4.10;79.40;;;;;;5022677;28;20585;-70
2021/12/04 04:34:03;;;;;;;9.27;6.38;;;4.10;79.40;;;;;;5028531;28;20288;-70
2021/12/04 04:36:58;;;;;;;9.30;6.18;;;4.10;79.60;;;;;;5024241;28;20717;-71
2021/12/04 04:39:54;;;;;;;7.93;5.93;;;4.10;79.40;;;;;;5023760;28;20211;-70
2021/12/04 04:59:27;;;;;;;10.63;6.80;;;4.10;79.80;;;;;;5025525;28;20577;-69
2021/12/04 05:02:08;;;;;;;10.60;6.28;;;4.10;79.80;;;;;;5023024;28;20244;-69
2021/12/04 05:10:39;;;;;;;20.90;10.70;;;4.10;80.10;;;;;;5025121;28;21052;-69
2021/12/04 05:13:09;;;;;;;19.33;10.27;;;4.10;80.30;;;;;;5024236;28;20621;-70
2021/12/04 05:15:43;;;;;;;10.60;6.75;;;4.20;80.40;;;;;;5020630;28;20249;-70
2021/12/04 05:18:21;;;;;;;9.50;6.75;;;4.20;80.10;;;;;;5020565;28;20263;-69
2021/12/04 05:20:52;;;;;;;8.82;6.47;;;4.20;79.90;;;;;;5020129;28;20204;-70
2021/12/04 05:23:21;;;;;;;8.98;6.72;;;4.10;79.90;;;;;;5024973;28;20670;-69
2021/12/04 05:25:50;;;;;;;8.95;6.82;;;4.10;79.90;;;;;;5021330;28;20225;-70
2021/12/04 05:28:18;;;;;;;16.05;9.02;;;4.00;80.00;;;;;;5020001;28;20212;-70
2021/12/04 05:30:46;;;;;;;13.38;7.55;;;4.00;80.00;;;;;;5025267;28;20229;-70
2021/12/04 05:33:14;;;;;;;10.20;7.18;;;4.00;80.30;;;;;;5024248;28;20193;-70
2021/12/04 05:35:47;;;;;;;36.70;16.83;;;3.90;80.30;;;;;;5021970;28;20271;-68
2021/12/04 05:38:16;;;;;;;28.10;12.50;;;3.90;80.30;;;;;;5024852;28;21126;-71
2021/12/04 05:40:44;;;;;;;41.28;15.68;;;3.90;80.40;;;;;;5026178;28;20213;-69
2021/12/04 05:43:14;;;;;;;100.63;35.28;;;3.90;80.50;;;;;;5019856;28;20246;-70
2021/12/04 05:45:45;;;;;;;46.58;18.38;;;3.90;80.60;;;;;;5017119;28;20787;-71
2021/12/04 05:48:17;;;;;;;13.27;7.85;;;3.90;80.60;;;;;;5016373;28;20213;-69
2021/12/04 05:51:03;;;;;;;10.55;6.93;;;3.90;80.60;;;;;;5019805;28;20227;-70
2021/12/04 05:53:42;;;;;;;47.90;18.80;;;3.90;80.60;;;;;;5020549;28;20602;-71
2021/12/04 05:56:10;;;;;;;25.98;12.40;;;3.90;80.60;;;;;;5017902;28;20232;-70
2021/12/04 05:58:39;;;;;;;15.77;9.38;;;3.90;80.70;;;;;;5020159;28;20213;-70
2021/12/04 06:01:08;;;;;;;20.13;10.65;;;3.80;80.70;;;;;;5022644;28;20277;-70
2021/12/04 06:03:37;;;;;;;17.60;10.77;;;3.80;80.70;;;;;;5018942;28;20205;-71
2021/12/04 06:06:06;;;;;;;26.88;13.45;;;3.80;80.80;;;;;;5020766;28;20224;-70
2021/12/04 06:08:34;;;;;;;20.42;14.35;;;3.80;81.00;;;;;;5022142;28;20205;-70
2021/12/04 06:11:02;;;;;;;24.75;15.82;;;3.80;81.00;;;;;;5024156;28;20205;-70
2021/12/04 06:13:30;;;;;;;43.58;23.75;;;3.90;81.10;;;;;;5021476;28;20280;-70
2021/12/04 06:16:00;;;;;;;56.20;27.48;;;3.80;81.00;;;;;;5019651;28;20236;-70
2021/12/04 06:18:28;;;;;;;38.30;23.85;;;3.80;81.00;;;;;;5018356;28;20213;-70
2021/12/04 06:23:42;;;;;;;18.67;13.15;;;3.90;81.30;;;;;;5037818;28;20232;-72
2021/12/04 06:26:10;;;;;;;20.90;13.30;;;3.90;81.40;;;;;;5028500;28;20229;-72
2021/12/04 06:28:38;;;;;;;28.38;17.27;;;3.90;81.20;;;;;;5021324;28;20232;-69
2021/12/04 06:31:09;;;;;;;21.50;14.40;;;3.90;81.30;;;;;;5025829;28;20228;-71
2021/12/04 06:33:38;;;;;;;38.55;18.88;;;3.90;81.30;;;;;;5021204;28;20200;-69
2021/12/04 06:36:07;;;;;;;16.17;10.48;;;3.90;81.30;;;;;;5019945;28;20632;-69
2021/12/04 06:38:36;;;;;;;14.60;10.18;;;3.90;81.30;;;;;;5014747;28;20201;-69
2021/12/04 06:41:05;;;;;;;16.63;11.90;;;3.80;81.30;;;;;;5020573;28;20196;-69
2021/12/04 06:43:35;;;;;;;17.83;12.25;;;3.80;81.50;;;;;;5018683;28;20245;-69
2021/12/04 06:46:05;;;;;;;19.98;12.80;;;3.80;81.40;;;;;;5018726;28;20690;-69
2021/12/04 06:48:39;;;;;;;29.35;15.63;;;3.80;81.50;;;;;;5021825;28;20206;-69
2021/12/04 06:51:14;;;;;;;23.88;13.48;;;3.80;81.60;;;;;;5018981;28;20209;-69
2021/12/04 06:53:46;;;;;;;29.50;15.68;;;3.90;81.70;;;;;;5018543;28;20587;-69
2021/12/04 06:56:16;;;;;;;31.05;18.15;;;3.90;81.90;;;;;;5016774;28;20603;-69
2021/12/04 06:58:44;;;;;;;38.85;20.60;;;3.90;81.70;;;;;;5019931;28;20666;-69
2021/12/04 07:01:12;;;;;;;18.73;13.88;;;3.90;81.90;;;;;;5022872;28;20717;-70
2021/12/04 07:03:43;;;;;;;27.50;17.02;;;3.90;81.70;;;;;;5018088;28;20791;-69
2021/12/04 07:06:11;;;;;;;38.00;18.30;;;3.90;82.00;;;;;;5015906;28;20232;-70
2021/12/04 07:08:39;;;;;;;23.02;13.27;;;3.90;81.90;;;;;;5020077;28;21009;-70
2021/12/04 07:11:07;;;;;;;20.33;11.70;;;3.90;82.00;;;;;;5019096;28;20263;-70
2021/12/04 07:13:35;;;;;;;19.98;13.15;;;3.90;81.90;;;;;;5013868;28;20585;-69
2021/12/04 07:16:08;;;;;;;17.17;11.70;;;3.90;81.90;;;;;;5014944;28;20244;-69
2021/12/04 07:18:38;;;;;;;17.33;11.35;;;3.90;82.00;;;;;;5018913;28;20193;-70
2021/12/04 07:21:08;;;;;;;15.52;10.00;;;3.90;82.10;;;;;;5021850;28;20725;-70
2021/12/04 07:23:37;;;;;;;17.30;10.25;;;3.80;82.00;;;;;;5019320;28;20225;-69
2021/12/04 07:26:05;;;;;;;18.27;11.82;;;3.80;82.00;;;;;;5034586;28;20233;-69
2021/12/04 07:28:33;;;;;;;18.17;11.95;;;3.80;82.10;;;;;;5016363;28;20196;-68
2021/12/04 07:31:01;;;;;;;19.50;12.40;;;3.80;82.10;;;;;;5014917;28;20229;-69
2021/12/04 07:33:30;;;;;;;26.33;18.38;;;3.80;82.20;;;;;;5033209;28;20296;-69
2021/12/04 07:35:59;;;;;;;20.63;14.10;;;3.80;82.20;;;;;;5031786;28;20221;-70
2021/12/04 07:38:29;;;;;;;23.73;14.38;;;3.80;82.30;;;;;;5022484;28;20201;-69
2021/12/04 07:40:59;;;;;;;22.45;14.82;;;3.80;82.40;;;;;;5019348;28;20217;-69
2021/12/04 07:43:28;;;;;;;22.13;16.55;;;3.80;82.50;;;;;;5035341;28;20213;-68
2021/12/04 07:45:57;;;;;;;26.65;17.00;;;3.90;82.60;;;;;;5022987;28;20728;-71
2021/12/04 07:48:25;;;;;;;24.58;15.27;;;3.90;82.60;;;;;;5020274;28;20205;-69
2021/12/04 07:50:55;;;;;;;26.75;18.05;;;4.00;82.60;;;;;;5018946;28;20687;-69
2021/12/04 07:53:23;;;;;;;29.80;20.20;;;4.00;82.50;;;;;;5020805;28;20741;-69
2021/12/04 07:55:53;;;;;;;61.78;35.95;;;4.00;82.40;;;;;;5018871;28;20235;-69
2021/12/04 07:58:21;;;;;;;26.90;19.20;;;4.00;82.40;;;;;;5022631;28;20208;-69
2021/12/04 08:00:50;;;;;;;27.60;19.73;;;4.00;82.50;;;;;;5020901;28;20225;-68
2021/12/04 08:03:18;;;;;;;34.75;25.10;;;4.00;82.40;;;;;;5020300;28;20217;-69
2021/12/04 08:05:46;;;;;;;28.58;19.73;;;4.00;82.40;;;;;;5019094;28;20340;-69
2021/12/04 08:08:14;;;;;;;31.33;20.42;;;4.00;82.50;;;;;;5023077;28;20208;-69
2021/12/04 08:10:42;;;;;;;45.35;28.25;;;4.00;82.50;;;;;;5019113;28;20217;-69
2021/12/04 08:13:11;;;;;;;33.05;22.60;;;4.00;82.70;;;;;;5021291;28;20197;-69
2021/12/04 08:15:39;;;;;;;33.58;25.33;;;4.10;82.80;;;;;;5018198;28;20376;-69
2021/12/04 08:18:13;;;;;;;31.23;20.05;;;4.10;82.80;;;;;;5017493;28;20201;-69
2021/12/04 08:20:41;;;;;;;45.30;26.35;;;4.20;82.90;;;;;;5016737;28;20209;-69
2021/12/04 08:23:09;;;;;;;41.05;23.55;;;4.20;82.80;;;;;;5015138;28;20217;-69
2021/12/04 08:25:37;;;;;;;38.20;25.30;;;4.20;82.80;;;;;;5017966;28;20574;-69
2021/12/04 08:28:06;;;;;;;23.90;17.58;;;4.20;82.80;;;;;;5015051;28;20213;-69
2021/12/04 08:30:39;;;;;;;26.55;19.17;;;4.30;82.80;;;;;;5016647;28;20239;-68
2021/12/04 08:33:08;;;;;;;30.38;19.10;;;4.30;82.80;;;;;;5022459;28;20220;-69
2021/12/04 08:35:39;;;;;;;25.33;18.25;;;4.30;82.90;;;;;;5022564;28;20229;-69
2021/12/04 08:38:08;;;;;;;29.98;17.48;;;4.40;82.90;;;;;;5019818;28;20202;-69
2021/12/04 08:40:38;;;;;;;26.80;16.60;;;4.40;82.80;;;;;;5022691;28;20254;-68
2021/12/04 08:43:07;;;;;;;29.58;16.10;;;4.40;82.80;;;;;;5018821;28;20212;-69
2021/12/04 08:45:37;;;;;;;24.40;15.93;;;4.40;82.70;;;;;;5016636;28;20298;-72
2021/12/04 08:48:05;;;;;;;23.20;14.68;;;4.40;82.70;;;;;;5015359;28;20204;-70
2021/12/04 08:50:35;;;;;;;23.00;15.32;;;4.40;82.70;;;;;;5017019;28;20201;-71
2021/12/04 08:53:06;;;;;;;25.48;16.13;;;4.40;82.90;;;;;;5018919;28;20208;-70
2021/12/04 08:55:36;;;;;;;28.30;19.05;;;4.40;82.90;;;;;;5018128;28;20224;-71
2021/12/04 08:58:05;;;;;;;25.55;16.60;;;4.50;82.80;;;;;;5018846;28;20208;-70
2021/12/04 09:00:39;;;;;;;34.38;25.55;;;4.40;82.60;;;;;;5015797;28;20271;-69
2021/12/04 09:03:09;;;;;;;30.52;20.35;;;4.40;82.70;;;;;;5020793;28;20224;-69
2021/12/04 09:05:38;;;;;;;43.92;30.85;;;4.40;82.90;;;;;;5023150;28;20240;-69
2021/12/04 09:08:07;;;;;;;35.15;23.98;;;4.40;82.90;;;;;;5027651;28;20255;-67
2021/12/04 09:10:36;;;;;;;29.55;19.17;;;4.40;82.80;;;;;;5027612;28;20296;-68
2021/12/04 09:13:04;;;;;;;33.40;19.83;;;4.30;82.80;;;;;;5026205;28;20205;-74
2021/12/04 09:15:36;;;;;;;31.58;20.77;;;4.30;82.70;;;;;;5026321;28;20240;-71
2021/12/04 09:18:05;;;;;;;31.58;19.80;;;4.20;82.90;;;;;;5029099;28;20654;-74
2021/12/04 09:20:33;;;;;;;30.90;20.10;;;4.20;82.90;;;;;;5030022;28;20185;-69
2021/12/04 09:23:04;;;;;;;38.85;26.65;;;4.20;83.10;;;;;;5020332;28;20193;-69
2021/12/04 09:25:33;;;;;;;32.63;22.08;;;4.20;83.20;;;;;;5017974;28;20237;-69
2021/12/04 09:28:12;;;;;;;35.30;24.60;;;4.20;83.40;;;;;;5017044;28;20212;-70
2021/12/04 09:33:53;;;;;;;33.22;23.30;;;4.30;83.30;;;;;;5001996;28;20225;-73
2021/12/04 10:13:05;;;;;;;39.20;25.67;;;4.20;83.70;;;;;;5020032;28;20193;-70
2021/12/04 10:24:39;;;;;;;31.35;21.50;;;4.50;84.00;;;;;;5024595;28;20220;-70
2021/12/04 10:33:18;;;;;;;38.97;26.17;;;4.70;83.90;;;;;;5018481;28;20205;-69
2021/12/04 10:35:47;;;;;;;43.42;30.00;;;4.70;84.00;;;;;;5022159;28;20239;-73
2021/12/04 10:38:22;;;;;;;46.45;30.33;;;4.80;83.90;;;;;;5036166;28;20205;-72
2021/12/04 10:40:52;;;;;;;49.47;33.75;;;4.80;83.90;;;;;;5038709;28;20209;-68
2021/12/04 10:43:23;;;;;;;52.95;33.80;;;4.80;83.90;;;;;;5022349;28;20213;-68
2021/12/04 10:45:54;;;;;;;46.60;30.40;;;4.80;83.80;;;;;;5021775;28;20236;-69
2021/12/04 10:48:26;;;;;;;47.33;32.33;;;4.90;83.80;;;;;;5019428;28;20296;-71
2021/12/04 10:51:02;;;;;;;54.75;36.53;;;4.90;83.70;;;;;;5022858;28;20283;-72
2021/12/04 10:53:36;;;;;;;61.03;38.22;;;4.90;83.70;;;;;;5019440;28;20185;-73
2021/12/04 10:56:22;;;;;;;54.35;34.65;;;4.90;83.70;;;;;;5019437;28;20232;-72
2021/12/04 10:59:11;;;;;;;48.95;28.70;;;4.90;83.80;;;;;;5021272;28;20212;-68
2021/12/04 11:01:49;;;;;;;45.95;30.10;;;4.90;83.70;;;;;;5020433;28;20751;-68
2021/12/04 11:04:32;;;;;;;44.40;30.35;;;4.90;83.70;;;;;;5018976;28;20710;-69
2021/12/04 11:21:38;;;;;;;55.88;29.02;;;5.10;83.90;;;;;;5016689;28;20897;-70
2021/12/04 11:24:26;;;;;;;61.85;32.95;;;5.10;84.00;;;;;;5018357;28;20290;-69
2021/12/04 11:41:10;;;;;;;40.25;25.58;;;5.30;83.90;;;;;;5014427;28;20900;-69
2021/12/04 11:46:40;;;;;;;43.22;28.35;;;5.20;84.00;;;;;;5017243;28;20241;-69
2021/12/04 11:49:10;;;;;;;53.53;32.80;;;5.20;83.90;;;;;;5021268;28;20585;-69
2021/12/04 11:51:47;;;;;;;61.45;41.03;;;5.20;83.80;;;;;;5020458;28;20209;-69
2021/12/04 11:54:17;;;;;;;43.75;27.23;;;5.10;83.90;;;;;;5017832;28;20198;-69
2021/12/04 11:56:45;;;;;;;27.45;19.10;;;5.10;83.80;;;;;;5017729;28;20228;-69
2021/12/04 11:59:14;;;;;;;29.25;19.90;;;5.10;83.80;;;;;;5018002;28;20236;-69
2021/12/04 12:01:42;;;;;;;37.10;26.48;;;5.10;83.70;;;;;;5016632;28;20279;-69
2021/12/04 12:04:13;;;;;;;54.47;37.13;;;5.00;83.70;;;;;;5018873;28;20761;-69
2021/12/04 12:06:42;;;;;;;50.50;34.25;;;5.00;83.70;;;;;;5016456;28;20224;-69
2021/12/04 12:09:14;;;;;;;46.67;32.05;;;4.90;83.80;;;;;;5015808;28;20197;-70
2021/12/04 12:11:51;;;;;;;39.25;28.27;;;4.90;83.90;;;;;;5021395;28;20239;-70
2021/12/04 12:14:24;;;;;;;40.28;26.25;;;4.90;83.90;;;;;;5015550;28;20376;-69
2021/12/04 12:16:55;;;;;;;41.08;25.65;;;4.90;84.10;;;;;;5007571;28;20243;-69
2021/12/04 12:19:28;;;;;;;41.83;27.02;;;4.90;84.30;;;;;;5011527;28;20701;-69
2021/12/04 12:22:01;;;;;;;50.53;24.02;;;5.00;84.50;;;;;;5014940;28;20201;-72
2021/12/04 12:27:27;;;;;;;42.75;26.92;;;5.20;84.50;;;;;;5003614;28;20248;-70
2021/12/04 12:32:59;;;;;;;28.35;19.92;;;5.30;84.40;;;;;;5021905;28;20216;-70
2021/12/04 12:38:31;;;;;;;30.65;19.23;;;5.30;84.40;;;;;;5015795;28;20235;-70
2021/12/04 12:41:01;;;;;;;35.20;19.08;;;5.30;84.40;;;;;;5021407;28;20196;-70
2021/12/04 12:43:43;;;;;;;32.22;20.60;;;5.30;84.40;;;;;;5019949;28;20213;-71
2021/12/04 12:46:13;;;;;;;32.40;21.27;;;5.40;84.40;;;;;;5022206;28;20255;-70
2021/12/04 12:48:48;;;;;;;31.48;21.30;;;5.40;84.20;;;;;;5017470;28;21141;-69
2021/12/04 12:51:23;;;;;;;37.20;23.25;;;5.30;84.10;;;;;;5020983;28;20205;-69
2021/12/04 12:53:51;;;;;;;31.65;21.50;;;5.30;84.20;;;;;;5018578;28;20219;-70
2021/12/04 12:56:22;;;;;;;33.20;22.77;;;5.30;84.30;;;;;;5018312;28;20217;-70
2021/12/04 12:58:54;;;;;;;50.13;30.60;;;5.30;84.30;;;;;;5016063;28;20197;-69
2021/12/04 13:12:46;;;;;;;36.00;23.15;;;5.30;84.40;;;;;;5028326;28;20692;-68
2021/12/04 13:15:16;;;;;;;35.30;21.65;;;5.30;84.40;;;;;;5027726;28;20228;-71
2021/12/04 13:17:45;;;;;;;40.17;20.60;;;5.40;84.50;;;;;;5028959;28;20208;-70
2021/12/04 13:20:13;;;;;;;30.20;18.45;;;5.40;84.40;;;;;;5023565;28;20201;-69
2021/12/04 13:22:41;;;;;;;76.95;20.83;;;5.40;84.40;;;;;;5027509;28;20220;-68
2021/12/04 13:25:12;;;;;;;30.60;18.30;;;5.40;84.50;;;;;;5022111;28;20233;-69
2021/12/04 13:30:10;;;;;;;72.10;17.90;;;5.50;84.50;;;;;;5019062;28;20209;-69
2021/12/04 13:32:40;;;;;;;35.40;17.75;;;5.60;84.40;;;;;;5019964;28;20205;-69
2021/12/04 13:35:12;;;;;;;29.27;17.60;;;5.60;84.40;;;;;;5015343;28;20205;-68
2021/12/04 13:37:41;;;;;;;26.92;16.13;;;5.60;84.30;;;;;;5016566;28;20228;-69
2021/12/04 13:40:12;;;;;;;27.67;16.60;;;5.60;84.30;;;;;;5020027;28;20220;-69
2021/12/04 13:42:41;;;;;;;27.15;17.45;;;5.60;84.30;;;;;;5018208;28;20809;-69
2021/12/04 13:45:12;;;;;;;27.33;17.35;;;5.60;84.20;;;;;;5023890;28;20233;-69
2021/12/04 13:47:41;;;;;;;26.13;17.50;;;5.50;84.10;;;;;;5021281;28;20244;-69
2021/12/04 13:52:57;;;;;;;23.92;15.63;;;5.50;84.10;;;;;;5022055;28;20205;-69
2021/12/04 13:55:26;;;;;;;23.23;15.23;;;5.50;84.10;;;;;;5020128;28;20217;-69
2021/12/04 13:57:57;;;;;;;24.85;15.85;;;5.40;84.10;;;;;;5019437;28;20254;-69
2021/12/04 14:00:25;;;;;;;22.90;15.82;;;5.40;84.10;;;;;;5018985;28;20197;-69
2021/12/04 14:02:53;;;;;;;19.23;13.98;;;5.40;84.10;;;;;;5018076;28;20701;-68
2021/12/04 14:05:25;;;;;;;21.40;14.82;;;5.40;84.10;;;;;;5018238;28;20319;-68
2021/12/04 14:07:56;;;;;;;23.02;15.52;;;5.30;84.00;;;;;;5018199;28;20197;-69
2021/12/04 14:10:27;;;;;;;23.52;14.90;;;5.30;84.00;;;;;;5040507;28;20231;-68
2021/12/04 14:12:55;;;;;;;20.65;13.73;;;5.30;84.10;;;;;;5029362;28;20677;-68
2021/12/04 14:15:25;;;;;;;19.33;13.75;;;5.30;84.10;;;;;;5028593;28;20225;-70
2021/12/04 14:17:59;;;;;;;21.42;13.52;;;5.30;84.20;;;;;;5025977;28;20197;-68
2021/12/04 14:20:29;;;;;;;21.02;13.68;;;5.30;84.20;;;;;;5027265;28;20254;-67
2021/12/04 14:22:59;;;;;;;19.05;12.38;;;5.30;84.20;;;;;;5027610;28;20211;-67
2021/12/04 14:25:29;;;;;;;16.83;11.43;;;5.30;84.10;;;;;;5028279;28;20713;-69
2021/12/04 14:27:59;;;;;;;19.83;12.07;;;5.30;84.10;;;;;;5026984;28;20208;-71
2021/12/04 14:30:32;;;;;;;16.55;10.85;;;5.30;84.10;;;;;;5023220;28;20225;-70
2021/12/04 14:33:02;;;;;;;17.02;11.20;;;5.30;84.10;;;;;;5035111;28;20209;-67
2021/12/04 14:35:34;;;;;;;15.60;11.30;;;5.20;84.10;;;;;;5025053;28;20709;-71
2021/12/04 14:38:07;;;;;;;14.95;10.52;;;5.20;84.10;;;;;;5029084;28;20200;-69
2021/12/04 14:40:38;;;;;;;14.02;9.75;;;5.30;84.20;;;;;;5020994;28;20589;-68
2021/12/04 14:43:07;;;;;;;15.23;10.73;;;5.30;84.30;;;;;;5020951;28;20220;-69
2021/12/04 14:45:38;;;;;;;15.50;10.90;;;5.30;84.20;;;;;;5016500;28;20637;-69
2021/12/04 14:48:09;;;;;;;13.50;9.48;;;5.30;84.20;;;;;;5018493;28;20264;-68
2021/12/04 14:50:42;;;;;;;12.68;9.27;;;5.30;84.10;;;;;;5017696;28;20268;-68
2021/12/04 14:53:13;;;;;;;13.32;8.90;;;5.30;84.10;;;;;;5016762;28;20202;-69
2021/12/04 14:55:42;;;;;;;12.63;9.02;;;5.30;84.10;;;;;;5014930;28;20714;-69
2021/12/04 14:58:14;;;;;;;12.35;8.90;;;5.20;84.10;;;;;;5017628;28;20210;-69
2021/12/04 15:00:44;;;;;;;14.48;8.73;;;5.20;84.10;;;;;;5017988;28;20237;-69
2021/12/04 15:03:14;;;;;;;9.93;7.70;;;5.20;84.00;;;;;;5015848;28;20601;-68
2021/12/04 15:05:46;;;;;;;14.75;8.77;;;5.20;84.00;;;;;;5016158;28;20229;-69
2021/12/04 15:08:16;;;;;;;12.52;8.80;;;5.20;84.00;;;;;;5011816;28;20221;-69
2021/12/04 15:10:47;;;;;;;15.15;9.32;;;5.10;83.90;;;;;;5016780;28;20567;-68
2021/12/04 15:13:20;;;;;;;12.18;8.95;;;5.10;83.70;;;;;;5017475;28;20707;-68
2021/12/04 15:15:49;;;;;;;10.50;7.05;;;5.00;83.80;;;;;;5016765;28;20280;-68
2021/12/04 15:18:20;;;;;;;10.35;7.18;;;5.00;83.80;;;;;;5018443;28;20208;-68
2021/12/04 15:20:59;;;;;;;9.95;6.40;;;4.90;83.90;;;;;;5019289;28;20201;-68
2021/12/04 15:23:30;;;;;;;11.15;9.05;;;4.90;83.80;;;;;;5016468;28;20201;-68
2021/12/04 15:26:09;;;;;;;8.93;6.75;;;4.80;83.60;;;;;;5030890;28;20233;-68
2021/12/04 15:28:42;;;;;;;7.90;5.75;;;4.70;83.90;;;;;;5016517;28;20205;-68
2021/12/04 15:31:10;;;;;;;15.20;9.27;;;4.70;84.00;;;;;;5013070;28;20725;-68
2021/12/04 15:33:41;;;;;;;7.88;5.85;;;4.70;84.10;;;;;;5017187;28;20232;-68
2021/12/04 15:36:30;;;;;;;6.78;5.20;;;4.70;84.30;;;;;;5016889;28;20221;-68